РУС

ENG

 
  Pireps - S7
 

Рейс SBI1027

  • Выполнял: Anton Molchanov
  • Аэропорт отправления: Domodedovo Airport (UUDD)
  • Аэропорт назначения: Pulkovo Airport (ULLI)
  • Тип ВС: B737-800 (VQ-BVK)
  • Время полёта: 01.12
  • Дата полёта: 20.09.2020
  • Маршрут: WT GEKLA RUGEL BESTA KN NE R804 BD B160 OKULO R961 GENPA DIKOM
  • Статус: Одобрен

Детали полёта
Gross Revenue:
(113 load / $ 130.00 per unit
$ 14, 690.00
Fuel Cost:
(3425 fuel used @ 5.1 / unit)
$ 17, 467.50


Дополнительная информация о полёте:

Лог

Aircraft Used in flight is PMDG 737-800NGX - S7 Airlines New VP-BDG
16:26Flaps 3 Selected at 590ft and 4kts
16:26 Boarding
16:26 Engine 1 Started
16:26 Engine 2 Started
16:26 Navigation Lights ON at 590 AGL
16:26 Taxi Lights ON at 590 AGL
16:26 Beacon Lights ON at 590 AGL
16:26 Brakes are On
16:26 In Air Refuel Suspected
16:27 Brakes are Released
16:27 Landing Lights ON at 590 AGL
16:29 You Took off @ 150 Knots and Flaps at Position 3
Departure Weather
UUDD 200900Z 31009MPS 9999 SCT037 12/03 Q1016 R88/CLRD60 NOSIG
16:29 Landing Gear Up @ 166 Knots and 660 Feet
16:29 Taxi Lights OFF at 700 AGL
16:29Flaps 2 Selected at 2120ft and 186kts
16:29Flaps 1 Selected at 2550ft and 178kts
16:30Flaps Retracted at 4140ft and 217kts
16:32 Landing Lights OFF at 10070 AGL
16:42 TOC Reached
17:15 Overspeed
17:15 Recovered from Overspeed
17:29 Landing Lights ON at 9710 AGL
17:34Flaps 1 Selected at 2950ft and 199kts
17:34Flaps 2 Selected at 2970ft and 193kts
17:34Flaps 3 Selected at 2780ft and 183kts
17:34Flaps 4 Selected at 2690ft and 182kts
17:34 Landing Gear Down @ 181 Knots and 2660 Feet
17:35 Taxi Lights ON at 2540 AGL
17:35Flaps 5 Selected at 2440ft and 173kts
17:35Flaps 6 Selected at 2030ft and 159kts
17:35Flaps 7 Selected at 1880ft and 153kts
17:38 You Landed @ 128 Knots and with -350 Vertical Speed
Arrival Weather
ULLI 200900Z 28008MPS 9999 BKN033 13/05 Q1018 R28L/090060 NOSIG
17:39 Landing Lights OFF at 90 AGL
17:39 Brakes are On
Pirep logged with S7 Tracking 1.0.0.13


!!! Посадочные фары не выключены при наборе высоты с 5000 ft. до 10 000 ft.: -5%


Общая оценка полета : 95%




Route Map



 
 
   
 
Новости

03.09.2020 - Полеты в MFS 2020

Спешим сообщить вам, что теперь наш S7 Pad поддерживается для полетов в новом симуляторе MFS 2020. В разделе Загрузки вы найдете FSUIPC7.rar
Инструкция для запуска прилагается!

   
 
Авторизация






Регистрация

Восстановить пароль?

Мы в соц. сетях

      



   
 





   
 


   
 


Яндекс.Метрика

www.va-s7.ru 2011-2020
Все права защищены.



Минуточку внимания!
Сайт va-s7.ru не является коммерческим проектом. Мы не имеем отношения к торговым маркам "S7" и "Globus" и их представителям.
Эмблемы на сайте являются собственностью соответствующих компаний.

аэронавигационная метеорологическая и любая другая информация с данного ресурса ни в коем случае не должна использоваться для реальных полетов